Time;durP1;ratioP1;P1;durP2;ratioP2;P2;SDS_P1;SDS_P2;PMS_P1;PMS_P2;Temp;Humidity;BMP_temperature;BMP_pressure;BME280_temperature;BME280_humidity;BME280_pressure;Samples;Min_cycle;Max_cycle;Signal;HPM_P1;HPM_P2
2023/06/04 08:14:33;;;;;;;;;;;;;;;;;;;;;
2023/06/04 08:17:46;;;;;;;;;;;;;;;;;;;;;
2023/06/04 08:32:50;;;;;;;;;;;;;;;;;;;;;
2023/06/04 08:36:03;;;;;;;;;;;;;;;;;;;;;
2023/06/04 09:13:52;;;;;;;;;;;;;;;;;;;;;
2023/06/04 09:23:15;;;;;;;;;;;;;;;;;;;;;
2023/06/04 14:10:40;;;;;;;1.88;0.80;;;;;;;;;;6301147;22;20031;-95
2023/06/04 14:13:26;;;;;;;1.88;0.73;;;;;;;;;;6294277;22;20015;-95
2023/06/04 14:16:42;;;;;;;;;;;;;;;;;;;;;
2023/06/04 16:28:13;;;;;;;2.80;0.90;;;;;;;;;;6299229;22;20069;-94
2023/06/04 16:34:03;;;;;;;3.15;0.80;;;;;;;;;;6276785;22;19987;-95
2023/06/04 16:42:13;;;;;;;1.17;0.75;;;;;;;;;;6296100;22;20027;-95
2023/06/04 16:45:00;;;;;;;1.27;0.73;;;;;;;;;;6296659;22;20026;-94
2023/06/04 16:48:03;;;;;;;3.33;0.80;;;;;;;;;;6248607;22;19996;-95
2023/06/04 16:50:58;;;;;;;2.50;1.00;;;;;;;;;;6270359;22;19992;-94
2023/06/04 16:53:56;;;;;;;;;;;;;;;;;;;;;
2023/06/04 16:56:34;;;;;;;;;;;;;;;;;;;;;
2023/06/04 16:59:25;;;;;;;2.47;0.93;;;;;;;;;;6298102;22;19992;-94
2023/06/04 17:02:03;;;;;;;;;;;;;;;;;;;;;
2023/06/04 17:04:51;;;;;;;;;;;;;;;;;;;;;
2023/06/04 17:07:24;;;;;;;1.20;0.60;;;;;;;;;;6295875;22;20012;-96
2023/06/04 17:10:16;;;;;;;;;;;;;;;;;;;;;
2023/06/04 17:12:48;;;;;;;2.33;0.88;;;;;;;;;;6299279;22;20003;-94
2023/06/04 17:15:23;;;;;;;1.65;0.90;;;;;;;;;;6271349;22;20002;-94
2023/06/04 17:17:59;;;;;;;1.90;0.93;;;;;;;;;;6272073;22;20041;-94
2023/06/04 17:20:29;;;;;;;5.43;0.80;;;;;;;;;;6266985;23;20029;-94
2023/06/04 17:22:54;;;;;;;2.05;0.98;;;;;;;;;;6270978;22;20068;-95
2023/06/04 17:25:35;;;;;;;1.75;1.00;;;;;;;;;;6300530;22;20004;-95
2023/06/04 17:28:26;;;;;;;2.08;0.73;;;;;;;;;;6271919;22;20011;-96
2023/06/04 17:31:18;;;;;;;1.98;1.02;;;;;;;;;;6282962;22;20038;-96
2023/06/04 17:34:01;;;;;;;2.38;1.00;;;;;;;;;;6295470;22;20131;-96
2023/06/04 17:36:34;;;;;;;5.07;0.88;;;;;;;;;;6272222;22;20027;-96
2023/06/04 17:39:36;;;;;;;;;;;;;;;;;;;;;
2023/06/04 17:42:18;;;;;;;2.45;1.08;;;;;;;;;;6284306;22;20003;-96
2023/06/04 17:45:14;;;;;;;;;;;;;;;;;;;;;
2023/06/04 17:48:09;;;;;;;1.15;0.82;;;;;;;;;;6293931;22;20008;-96
2023/06/04 17:51:25;;;;;;;;;;;;;;;;;;;;;
2023/06/04 17:53:57;;;;;;;3.67;1.20;;;;;;;;;;6300497;22;20043;-96
2023/06/04 17:56:39;;;;;;;3.35;0.90;;;;;;;;;;6298638;22;19995;-96
2023/06/04 18:02:33;;;;;;;2.70;1.02;;;;;;;;;;6271341;22;19995;-96
2023/06/04 18:05:17;;;;;;;5.18;1.20;;;;;;;;;;6257512;22;19996;-96
2023/06/04 18:07:45;;;;;;;3.53;1.00;;;;;;;;;;6271354;22;20091;-96
2023/06/04 18:10:20;;;;;;;2.67;1.00;;;;;;;;;;6263848;22;19992;-96
2023/06/04 18:13:04;;;;;;;1.88;1.17;;;;;;;;;;6296582;22;20006;-96
2023/06/04 18:15:39;;;;;;;1.58;1.00;;;;;;;;;;6272156;22;19984;-96
2023/06/04 18:18:10;;;;;;;1.92;0.90;;;;;;;;;;6298035;22;19995;-96
2023/06/04 18:20:40;;;;;;;1.92;0.85;;;;;;;;;;6271845;22;19995;-96
2023/06/04 18:23:15;;;;;;;1.92;1.10;;;;;;;;;;6296689;22;20048;-95
2023/06/04 18:26:10;;;;;;;;;;;;;;;;;;;;;
2023/06/04 18:28:42;;;;;;;1.67;0.75;;;;;;;;;;6298172;22;20057;-96
2023/06/04 18:31:13;;;;;;;1.58;0.73;;;;;;;;;;6269917;22;20007;-96
2023/06/04 18:34:01;;;;;;;;;;;;;;;;;;;;;
2023/06/04 18:39:50;;;;;;;;;;;;;;;;;;;;;
2023/06/04 18:42:37;;;;;;;5.70;1.17;;;;;;;;;;6169906;23;20009;-95
2023/06/04 18:45:36;;;;;;;1.95;1.10;;;;;;;;;;6147390;23;20001;-95
2023/06/04 18:48:34;;;;;;;4.53;1.10;;;;;;;;;;6172393;23;20013;-96
2023/06/04 18:51:06;;;;;;;3.85;1.50;;;;;;;;;;6172269;23;20053;-96
2023/06/04 18:53:34;;;;;;;3.05;1.10;;;;;;;;;;6147542;23;20009;-96
2023/06/04 18:56:08;;;;;;;3.67;1.20;;;;;;;;;;6148510;23;20029;-96
2023/06/04 18:58:48;;;;;;;;;;;;;;;;;;;;;
2023/06/04 19:01:28;;;;;;;1.80;1.00;;;;;;;;;;6161825;23;20012;-96
2023/06/04 19:04:16;;;;;;;1.77;1.00;;;;;;;;;;6146751;23;20064;-96
2023/06/04 19:06:42;;;;;;;1.42;1.00;;;;;;;;;;6169376;23;20005;-96
2023/06/04 19:09:30;;;;;;;5.47;1.35;;;;;;;;;;6147543;23;20017;-96
2023/06/04 19:11:58;;;;;;;2.63;1.23;;;;;;;;;;6174792;22;20051;-95
2023/06/04 19:14:26;;;;;;;2.15;1.25;;;;;;;;;;6266648;22;20016;-96
2023/06/04 19:17:28;;;;;;;6.97;1.55;;;;;;;;;;6266821;22;20403;-96
2023/06/04 20:06:07;;;;;;;3.75;1.35;;;;;;;;;;6296006;22;19911;-94
2023/06/04 20:09:18;;;;;;;5.18;1.52;;;;;;;;;;6292542;22;20007;-95
2023/06/04 20:12:08;;;;;;;3.60;1.20;;;;;;;;;;6144529;23;20021;-94
2023/06/04 20:15:11;;;;;;;2.33;1.27;;;;;;;;;;6114414;23;19998;-94
